sensor_id;sensor_type;location;lat;lon;timestamp;P1;durP1;ratioP1;P2;durP2;ratioP2
2111;SDS011;1062;52.538;13.400;2022-11-15T00:01:05;39.13;;;24.13;;
2111;SDS011;1062;52.538;13.400;2022-11-15T00:03:38;36.80;;;22.80;;
2111;SDS011;1062;52.538;13.400;2022-11-15T00:06:03;32.07;;;21.00;;
2111;SDS011;1062;52.538;13.400;2022-11-15T00:08:30;43.07;;;28.33;;
2111;SDS011;1062;52.538;13.400;2022-11-15T00:10:57;39.50;;;22.43;;
2111;SDS011;1062;52.538;13.400;2022-11-15T00:13:24;33.90;;;21.87;;
2111;SDS011;1062;52.538;13.400;2022-11-15T00:15:50;37.77;;;23.97;;
2111;SDS011;1062;52.538;13.400;2022-11-15T00:18:17;36.73;;;23.60;;
2111;SDS011;1062;52.538;13.400;2022-11-15T00:20:43;37.90;;;24.27;;
2111;SDS011;1062;52.538;13.400;2022-11-15T00:23:09;39.07;;;22.03;;
2111;SDS011;1062;52.538;13.400;2022-11-15T00:25:34;45.10;;;25.20;;
2111;SDS011;1062;52.538;13.400;2022-11-15T00:28:00;39.43;;;24.80;;
2111;SDS011;1062;52.538;13.400;2022-11-15T00:30:27;39.87;;;23.73;;
2111;SDS011;1062;52.538;13.400;2022-11-15T00:32:53;32.70;;;22.87;;
2111;SDS011;1062;52.538;13.400;2022-11-15T00:35:18;38.57;;;23.23;;
2111;SDS011;1062;52.538;13.400;2022-11-15T00:37:44;42.47;;;25.50;;
2111;SDS011;1062;52.538;13.400;2022-11-15T00:40:11;42.13;;;24.33;;
2111;SDS011;1062;52.538;13.400;2022-11-15T00:42:38;41.63;;;23.13;;
2111;SDS011;1062;52.538;13.400;2022-11-15T00:45:03;39.27;;;23.00;;
2111;SDS011;1062;52.538;13.400;2022-11-15T00:47:29;39.83;;;23.70;;
2111;SDS011;1062;52.538;13.400;2022-11-15T00:49:55;40.40;;;24.20;;
2111;SDS011;1062;52.538;13.400;2022-11-15T00:52:20;36.77;;;25.13;;
2111;SDS011;1062;52.538;13.400;2022-11-15T00:54:46;39.90;;;24.03;;
2111;SDS011;1062;52.538;13.400;2022-11-15T00:57:11;39.33;;;22.57;;
2111;SDS011;1062;52.538;13.400;2022-11-15T00:59:39;40.30;;;24.37;;
2111;SDS011;1062;52.538;13.400;2022-11-15T01:02:11;41.87;;;24.67;;
2111;SDS011;1062;52.538;13.400;2022-11-15T01:04:36;40.93;;;25.20;;
2111;SDS011;1062;52.538;13.400;2022-11-15T01:07:03;43.43;;;24.07;;
2111;SDS011;1062;52.538;13.400;2022-11-15T01:09:29;42.53;;;25.93;;
2111;SDS011;1062;52.538;13.400;2022-11-15T01:11:55;33.10;;;22.63;;
2111;SDS011;1062;52.538;13.400;2022-11-15T01:14:21;45.57;;;25.97;;
2111;SDS011;1062;52.538;13.400;2022-11-15T01:16:47;53.60;;;23.77;;
2111;SDS011;1062;52.538;13.400;2022-11-15T01:19:13;45.10;;;23.70;;
2111;SDS011;1062;52.538;13.400;2022-11-15T01:21:39;44.87;;;22.97;;
2111;SDS011;1062;52.538;13.400;2022-11-15T01:24:06;44.07;;;26.60;;
2111;SDS011;1062;52.538;13.400;2022-11-15T01:26:33;43.10;;;24.50;;
2111;SDS011;1062;52.538;13.400;2022-11-15T01:28:59;39.67;;;23.83;;
2111;SDS011;1062;52.538;13.400;2022-11-15T01:31:24;51.27;;;26.93;;
2111;SDS011;1062;52.538;13.400;2022-11-15T01:33:50;43.17;;;26.97;;
2111;SDS011;1062;52.538;13.400;2022-11-15T01:36:17;39.30;;;26.40;;
2111;SDS011;1062;52.538;13.400;2022-11-15T01:38:44;45.90;;;26.90;;
2111;SDS011;1062;52.538;13.400;2022-11-15T01:41:14;38.00;;;24.43;;
2111;SDS011;1062;52.538;13.400;2022-11-15T01:43:42;40.90;;;23.53;;
2111;SDS011;1062;52.538;13.400;2022-11-15T01:48:50;39.60;;;24.57;;
2111;SDS011;1062;52.538;13.400;2022-11-15T01:51:18;43.70;;;24.47;;
2111;SDS011;1062;52.538;13.400;2022-11-15T01:53:47;44.97;;;24.87;;
2111;SDS011;1062;52.538;13.400;2022-11-15T01:56:16;41.13;;;22.97;;
2111;SDS011;1062;52.538;13.400;2022-11-15T01:58:45;48.87;;;24.50;;
2111;SDS011;1062;52.538;13.400;2022-11-15T02:01:12;42.73;;;25.97;;
2111;SDS011;1062;52.538;13.400;2022-11-15T02:03:42;40.60;;;24.90;;
2111;SDS011;1062;52.538;13.400;2022-11-15T02:06:21;43.50;;;23.17;;
2111;SDS011;1062;52.538;13.400;2022-11-15T02:08:47;43.43;;;23.43;;
2111;SDS011;1062;52.538;13.400;2022-11-15T02:11:14;39.90;;;24.47;;
2111;SDS011;1062;52.538;13.400;2022-11-15T02:13:40;46.53;;;25.10;;
2111;SDS011;1062;52.538;13.400;2022-11-15T02:19:08;44.80;;;23.20;;
2111;SDS011;1062;52.538;13.400;2022-11-15T02:35:44;38.83;;;23.17;;
2111;SDS011;1062;52.538;13.400;2022-11-15T02:38:25;46.53;;;25.67;;
2111;SDS011;1062;52.538;13.400;2022-11-15T02:41:20;49.77;;;23.77;;
2111;SDS011;1062;52.538;13.400;2022-11-15T02:44:07;43.83;;;26.33;;
2111;SDS011;1062;52.538;13.400;2022-11-15T02:46:40;45.40;;;24.77;;
2111;SDS011;1062;52.538;13.400;2022-11-15T02:49:34;42.43;;;24.33;;
2111;SDS011;1062;52.538;13.400;2022-11-15T02:52:00;45.30;;;25.17;;
2111;SDS011;1062;52.538;13.400;2022-11-15T02:54:29;48.53;;;23.20;;
2111;SDS011;1062;52.538;13.400;2022-11-15T02:56:58;43.50;;;25.30;;
2111;SDS011;1062;52.538;13.400;2022-11-15T03:02:17;46.40;;;23.77;;
2111;SDS011;1062;52.538;13.400;2022-11-15T03:04:57;39.40;;;23.00;;
2111;SDS011;1062;52.538;13.400;2022-11-15T03:07:37;43.80;;;24.10;;
2111;SDS011;1062;52.538;13.400;2022-11-15T03:10:31;46.17;;;24.77;;
2111;SDS011;1062;52.538;13.400;2022-11-15T03:15:57;42.07;;;23.00;;
2111;SDS011;1062;52.538;13.400;2022-11-15T03:18:29;39.13;;;22.47;;
2111;SDS011;1062;52.538;13.400;2022-11-15T03:21:03;43.30;;;23.13;;
2111;SDS011;1062;52.538;13.400;2022-11-15T03:23:31;39.50;;;24.40;;
2111;SDS011;1062;52.538;13.400;2022-11-15T03:25:59;39.97;;;25.30;;
2111;SDS011;1062;52.538;13.400;2022-11-15T03:28:49;41.03;;;25.50;;
2111;SDS011;1062;52.538;13.400;2022-11-15T03:31:12;43.77;;;24.30;;
2111;SDS011;1062;52.538;13.400;2022-11-15T03:33:59;37.93;;;23.40;;
2111;SDS011;1062;52.538;13.400;2022-11-15T03:36:28;39.10;;;23.47;;
2111;SDS011;1062;52.538;13.400;2022-11-15T03:38:56;40.63;;;23.37;;
2111;SDS011;1062;52.538;13.400;2022-11-15T03:41:28;40.97;;;22.60;;
2111;SDS011;1062;52.538;13.400;2022-11-15T03:44:09;46.80;;;25.10;;
2111;SDS011;1062;52.538;13.400;2022-11-15T03:46:46;36.27;;;23.00;;
2111;SDS011;1062;52.538;13.400;2022-11-15T03:49:17;40.63;;;23.70;;
2111;SDS011;1062;52.538;13.400;2022-11-15T03:51:49;43.33;;;22.70;;
2111;SDS011;1062;52.538;13.400;2022-11-15T03:54:15;38.00;;;24.10;;
2111;SDS011;1062;52.538;13.400;2022-11-15T03:56:40;45.87;;;23.00;;
2111;SDS011;1062;52.538;13.400;2022-11-15T03:59:06;37.57;;;22.83;;
2111;SDS011;1062;52.538;13.400;2022-11-15T04:01:31;42.90;;;24.00;;
2111;SDS011;1062;52.538;13.400;2022-11-15T04:03:57;34.90;;;23.10;;
2111;SDS011;1062;52.538;13.400;2022-11-15T04:06:23;40.00;;;23.80;;
2111;SDS011;1062;52.538;13.400;2022-11-15T04:08:48;43.47;;;24.57;;
2111;SDS011;1062;52.538;13.400;2022-11-15T04:11:14;41.30;;;22.23;;
2111;SDS011;1062;52.538;13.400;2022-11-15T04:13:39;33.67;;;21.47;;
2111;SDS011;1062;52.538;13.400;2022-11-15T04:16:05;39.57;;;24.27;;
2111;SDS011;1062;52.538;13.400;2022-11-15T04:18:30;41.97;;;23.10;;
2111;SDS011;1062;52.538;13.400;2022-11-15T04:20:56;35.40;;;20.20;;
2111;SDS011;1062;52.538;13.400;2022-11-15T04:23:40;45.43;;;23.57;;
2111;SDS011;1062;52.538;13.400;2022-11-15T04:26:18;43.50;;;22.00;;
2111;SDS011;1062;52.538;13.400;2022-11-15T04:28:46;46.60;;;23.83;;
2111;SDS011;1062;52.538;13.400;2022-11-15T04:31:30;35.10;;;22.13;;
2111;SDS011;1062;52.538;13.400;2022-11-15T04:33:55;43.67;;;24.73;;
2111;SDS011;1062;52.538;13.400;2022-11-15T04:36:21;41.10;;;22.83;;
2111;SDS011;1062;52.538;13.400;2022-11-15T04:39:06;42.33;;;23.70;;
2111;SDS011;1062;52.538;13.400;2022-11-15T04:41:32;41.93;;;23.50;;
2111;SDS011;1062;52.538;13.400;2022-11-15T04:43:57;44.50;;;22.77;;
2111;SDS011;1062;52.538;13.400;2022-11-15T04:46:23;35.00;;;20.47;;
2111;SDS011;1062;52.538;13.400;2022-11-15T04:48:50;41.87;;;21.13;;
2111;SDS011;1062;52.538;13.400;2022-11-15T04:51:16;39.77;;;23.27;;
2111;SDS011;1062;52.538;13.400;2022-11-15T04:53:42;41.67;;;21.60;;
2111;SDS011;1062;52.538;13.400;2022-11-15T04:56:07;43.17;;;23.80;;
2111;SDS011;1062;52.538;13.400;2022-11-15T04:58:33;36.97;;;22.70;;
2111;SDS011;1062;52.538;13.400;2022-11-15T05:01:06;41.27;;;23.33;;
2111;SDS011;1062;52.538;13.400;2022-11-15T05:03:39;39.10;;;21.47;;
2111;SDS011;1062;52.538;13.400;2022-11-15T05:06:24;33.03;;;20.43;;
2111;SDS011;1062;52.538;13.400;2022-11-15T05:08:50;34.57;;;22.10;;
2111;SDS011;1062;52.538;13.400;2022-11-15T05:11:16;35.37;;;21.13;;
2111;SDS011;1062;52.538;13.400;2022-11-15T05:13:41;35.90;;;22.20;;
2111;SDS011;1062;52.538;13.400;2022-11-15T05:16:07;38.53;;;22.23;;
2111;SDS011;1062;52.538;13.400;2022-11-15T05:18:32;43.40;;;24.03;;
2111;SDS011;1062;52.538;13.400;2022-11-15T05:21:08;43.37;;;21.80;;
2111;SDS011;1062;52.538;13.400;2022-11-15T05:23:40;32.70;;;20.57;;
2111;SDS011;1062;52.538;13.400;2022-11-15T05:26:06;44.60;;;23.97;;
2111;SDS011;1062;52.538;13.400;2022-11-15T05:28:35;38.17;;;21.77;;
2111;SDS011;1062;52.538;13.400;2022-11-15T05:31:10;36.40;;;21.90;;
2111;SDS011;1062;52.538;13.400;2022-11-15T05:33:37;33.90;;;20.50;;
2111;SDS011;1062;52.538;13.400;2022-11-15T05:38:52;33.47;;;21.30;;
2111;SDS011;1062;52.538;13.400;2022-11-15T05:41:19;32.77;;;21.03;;
2111;SDS011;1062;52.538;13.400;2022-11-15T05:43:50;43.03;;;25.90;;
2111;SDS011;1062;52.538;13.400;2022-11-15T05:46:16;35.40;;;21.70;;
2111;SDS011;1062;52.538;13.400;2022-11-15T05:48:43;33.77;;;20.77;;
2111;SDS011;1062;52.538;13.400;2022-11-15T05:51:11;38.77;;;20.53;;
2111;SDS011;1062;52.538;13.400;2022-11-15T05:53:39;36.80;;;21.57;;
2111;SDS011;1062;52.538;13.400;2022-11-15T05:56:04;33.80;;;21.27;;
2111;SDS011;1062;52.538;13.400;2022-11-15T05:58:34;36.80;;;23.90;;
2111;SDS011;1062;52.538;13.400;2022-11-15T06:01:01;38.57;;;22.27;;
2111;SDS011;1062;52.538;13.400;2022-11-15T06:03:27;38.37;;;21.20;;
2111;SDS011;1062;52.538;13.400;2022-11-15T06:05:52;37.93;;;22.40;;
2111;SDS011;1062;52.538;13.400;2022-11-15T06:08:18;37.73;;;22.43;;
2111;SDS011;1062;52.538;13.400;2022-11-15T06:10:43;41.90;;;23.97;;
2111;SDS011;1062;52.538;13.400;2022-11-15T06:13:09;39.53;;;24.30;;
2111;SDS011;1062;52.538;13.400;2022-11-15T06:15:35;37.10;;;21.70;;
2111;SDS011;1062;52.538;13.400;2022-11-15T06:18:00;32.90;;;21.33;;
2111;SDS011;1062;52.538;13.400;2022-11-15T06:20:26;34.27;;;21.30;;
2111;SDS011;1062;52.538;13.400;2022-11-15T06:22:57;41.00;;;23.97;;
2111;SDS011;1062;52.538;13.400;2022-11-15T06:25:28;37.07;;;22.27;;
2111;SDS011;1062;52.538;13.400;2022-11-15T06:27:55;36.07;;;21.83;;
2111;SDS011;1062;52.538;13.400;2022-11-15T06:30:22;34.70;;;21.37;;
2111;SDS011;1062;52.538;13.400;2022-11-15T06:32:49;42.40;;;23.80;;
2111;SDS011;1062;52.538;13.400;2022-11-15T06:35:15;41.97;;;22.40;;
2111;SDS011;1062;52.538;13.400;2022-11-15T06:37:41;44.40;;;24.73;;
2111;SDS011;1062;52.538;13.400;2022-11-15T06:40:07;42.77;;;24.43;;
2111;SDS011;1062;52.538;13.400;2022-11-15T06:42:34;33.37;;;19.50;;
2111;SDS011;1062;52.538;13.400;2022-11-15T06:45:00;35.73;;;21.77;;
2111;SDS011;1062;52.538;13.400;2022-11-15T06:47:26;39.70;;;23.97;;
2111;SDS011;1062;52.538;13.400;2022-11-15T06:49:51;46.13;;;22.97;;
2111;SDS011;1062;52.538;13.400;2022-11-15T06:52:17;42.67;;;22.70;;
2111;SDS011;1062;52.538;13.400;2022-11-15T06:54:46;39.47;;;22.83;;
2111;SDS011;1062;52.538;13.400;2022-11-15T06:57:12;44.17;;;24.83;;
2111;SDS011;1062;52.538;13.400;2022-11-15T06:59:38;38.60;;;22.50;;
2111;SDS011;1062;52.538;13.400;2022-11-15T07:02:03;42.73;;;23.83;;
2111;SDS011;1062;52.538;13.400;2022-11-15T07:04:29;34.30;;;21.50;;
2111;SDS011;1062;52.538;13.400;2022-11-15T07:06:55;47.53;;;23.10;;
2111;SDS011;1062;52.538;13.400;2022-11-15T07:09:20;37.83;;;22.80;;
2111;SDS011;1062;52.538;13.400;2022-11-15T07:11:46;36.97;;;22.87;;
2111;SDS011;1062;52.538;13.400;2022-11-15T07:14:11;33.23;;;21.17;;
2111;SDS011;1062;52.538;13.400;2022-11-15T07:16:37;47.20;;;24.10;;
2111;SDS011;1062;52.538;13.400;2022-11-15T07:19:03;38.57;;;22.03;;
2111;SDS011;1062;52.538;13.400;2022-11-15T07:21:28;36.30;;;23.80;;
2111;SDS011;1062;52.538;13.400;2022-11-15T07:23:54;40.47;;;23.20;;
2111;SDS011;1062;52.538;13.400;2022-11-15T07:26:20;40.60;;;21.97;;
2111;SDS011;1062;52.538;13.400;2022-11-15T07:28:46;38.70;;;22.27;;
2111;SDS011;1062;52.538;13.400;2022-11-15T07:31:11;39.00;;;22.90;;
2111;SDS011;1062;52.538;13.400;2022-11-15T07:33:37;36.83;;;23.50;;
2111;SDS011;1062;52.538;13.400;2022-11-15T07:36:03;37.03;;;22.47;;
2111;SDS011;1062;52.538;13.400;2022-11-15T07:38:30;46.43;;;24.40;;
2111;SDS011;1062;52.538;13.400;2022-11-15T07:41:00;36.53;;;22.83;;
2111;SDS011;1062;52.538;13.400;2022-11-15T07:43:27;33.73;;;20.10;;
2111;SDS011;1062;52.538;13.400;2022-11-15T07:45:54;35.33;;;20.67;;
2111;SDS011;1062;52.538;13.400;2022-11-15T07:48:20;37.17;;;22.93;;
2111;SDS011;1062;52.538;13.400;2022-11-15T07:50:46;37.60;;;21.90;;
2111;SDS011;1062;52.538;13.400;2022-11-15T07:53:12;37.80;;;23.33;;
2111;SDS011;1062;52.538;13.400;2022-11-15T07:55:39;36.50;;;23.20;;
2111;SDS011;1062;52.538;13.400;2022-11-15T07:58:06;34.37;;;21.47;;
2111;SDS011;1062;52.538;13.400;2022-11-15T08:00:33;42.83;;;22.17;;
2111;SDS011;1062;52.538;13.400;2022-11-15T08:03:06;30.90;;;22.43;;
2111;SDS011;1062;52.538;13.400;2022-11-15T08:05:37;33.70;;;20.90;;
2111;SDS011;1062;52.538;13.400;2022-11-15T08:08:04;25.23;;;17.37;;
2111;SDS011;1062;52.538;13.400;2022-11-15T08:10:30;28.60;;;18.77;;
2111;SDS011;1062;52.538;13.400;2022-11-15T08:12:59;27.17;;;17.77;;
2111;SDS011;1062;52.538;13.400;2022-11-15T08:15:26;26.57;;;17.57;;
2111;SDS011;1062;52.538;13.400;2022-11-15T08:17:53;25.17;;;17.03;;
2111;SDS011;1062;52.538;13.400;2022-11-15T08:20:22;28.20;;;18.40;;
2111;SDS011;1062;52.538;13.400;2022-11-15T08:22:48;23.57;;;16.70;;
2111;SDS011;1062;52.538;13.400;2022-11-15T08:25:14;27.20;;;17.67;;
2111;SDS011;1062;52.538;13.400;2022-11-15T08:27:39;28.40;;;17.70;;
2111;SDS011;1062;52.538;13.400;2022-11-15T08:30:05;27.97;;;18.10;;
2111;SDS011;1062;52.538;13.400;2022-11-15T08:32:32;27.97;;;17.43;;
2111;SDS011;1062;52.538;13.400;2022-11-15T08:34:57;29.07;;;16.47;;
2111;SDS011;1062;52.538;13.400;2022-11-15T08:37:23;26.47;;;17.90;;
2111;SDS011;1062;52.538;13.400;2022-11-15T08:39:49;28.67;;;17.37;;
2111;SDS011;1062;52.538;13.400;2022-11-15T08:42:14;26.53;;;17.07;;
2111;SDS011;1062;52.538;13.400;2022-11-15T08:44:41;28.13;;;17.37;;
2111;SDS011;1062;52.538;13.400;2022-11-15T08:47:07;24.47;;;16.43;;
2111;SDS011;1062;52.538;13.400;2022-11-15T08:49:35;21.33;;;15.40;;
2111;SDS011;1062;52.538;13.400;2022-11-15T08:52:01;28.33;;;15.60;;
2111;SDS011;1062;52.538;13.400;2022-11-15T08:54:27;23.30;;;15.63;;
2111;SDS011;1062;52.538;13.400;2022-11-15T08:56:53;21.57;;;16.67;;
2111;SDS011;1062;52.538;13.400;2022-11-15T08:59:19;23.93;;;16.83;;
2111;SDS011;1062;52.538;13.400;2022-11-15T09:01:45;22.53;;;16.50;;
2111;SDS011;1062;52.538;13.400;2022-11-15T09:04:11;22.93;;;16.83;;
2111;SDS011;1062;52.538;13.400;2022-11-15T09:06:37;23.40;;;16.97;;
2111;SDS011;1062;52.538;13.400;2022-11-15T09:09:03;24.53;;;17.77;;
2111;SDS011;1062;52.538;13.400;2022-11-15T09:11:29;29.13;;;18.27;;
2111;SDS011;1062;52.538;13.400;2022-11-15T09:13:55;24.30;;;17.23;;
2111;SDS011;1062;52.538;13.400;2022-11-15T09:16:22;23.60;;;16.87;;
2111;SDS011;1062;52.538;13.400;2022-11-15T09:18:48;22.53;;;16.93;;
2111;SDS011;1062;52.538;13.400;2022-11-15T09:21:14;25.47;;;16.57;;
2111;SDS011;1062;52.538;13.400;2022-11-15T09:23:39;24.70;;;17.07;;
2111;SDS011;1062;52.538;13.400;2022-11-15T09:26:06;24.77;;;15.60;;
2111;SDS011;1062;52.538;13.400;2022-11-15T09:28:32;27.27;;;16.77;;
2111;SDS011;1062;52.538;13.400;2022-11-15T09:30:59;25.33;;;16.63;;
2111;SDS011;1062;52.538;13.400;2022-11-15T09:33:27;21.33;;;15.57;;
2111;SDS011;1062;52.538;13.400;2022-11-15T09:35:53;26.60;;;14.27;;
2111;SDS011;1062;52.538;13.400;2022-11-15T09:38:24;24.50;;;16.03;;
2111;SDS011;1062;52.538;13.400;2022-11-15T09:40:52;26.20;;;18.30;;
2111;SDS011;1062;52.538;13.400;2022-11-15T09:46:28;19.97;;;15.30;;
2111;SDS011;1062;52.538;13.400;2022-11-15T09:49:03;22.77;;;14.47;;
2111;SDS011;1062;52.538;13.400;2022-11-15T09:54:04;17.40;;;13.07;;
2111;SDS011;1062;52.538;13.400;2022-11-15T09:56:36;20.90;;;12.70;;
2111;SDS011;1062;52.538;13.400;2022-11-15T09:59:30;19.37;;;13.27;;
2111;SDS011;1062;52.538;13.400;2022-11-15T10:05:03;18.63;;;13.17;;
2111;SDS011;1062;52.538;13.400;2022-11-15T10:07:46;19.47;;;12.63;;
2111;SDS011;1062;52.538;13.400;2022-11-15T10:10:24;20.23;;;13.10;;
2111;SDS011;1062;52.538;13.400;2022-11-15T10:12:56;18.40;;;12.40;;
2111;SDS011;1062;52.538;13.400;2022-11-15T10:15:23;18.10;;;13.37;;
2111;SDS011;1062;52.538;13.400;2022-11-15T10:20:41;16.77;;;11.87;;
2111;SDS011;1062;52.538;13.400;2022-11-15T10:23:16;17.40;;;12.80;;
2111;SDS011;1062;52.538;13.400;2022-11-15T10:25:44;16.07;;;13.53;;
2111;SDS011;1062;52.538;13.400;2022-11-15T10:28:17;16.50;;;12.60;;
2111;SDS011;1062;52.538;13.400;2022-11-15T10:31:01;18.63;;;13.00;;
2111;SDS011;1062;52.538;13.400;2022-11-15T10:41:19;21.27;;;13.17;;
2111;SDS011;1062;52.538;13.400;2022-11-15T10:54:47;17.13;;;12.50;;
2111;SDS011;1062;52.538;13.400;2022-11-15T10:57:23;17.93;;;11.90;;
2111;SDS011;1062;52.538;13.400;2022-11-15T11:00:43;16.80;;;11.60;;
2111;SDS011;1062;52.538;13.400;2022-11-15T11:08:31;16.10;;;11.37;;
2111;SDS011;1062;52.538;13.400;2022-11-15T11:10:57;16.43;;;11.77;;
2111;SDS011;1062;52.538;13.400;2022-11-15T11:24:49;16.33;;;12.90;;
2111;SDS011;1062;52.538;13.400;2022-11-15T11:30:08;16.83;;;13.17;;
2111;SDS011;1062;52.538;13.400;2022-11-15T11:32:57;18.00;;;13.20;;
2111;SDS011;1062;52.538;13.400;2022-11-15T11:37:03;21.97;;;15.97;;
2111;SDS011;1062;52.538;13.400;2022-11-15T11:39:00;16.80;;;12.33;;
2111;SDS011;1062;52.538;13.400;2022-11-15T11:49:39;16.60;;;11.73;;
2111;SDS011;1062;52.538;13.400;2022-11-15T11:52:17;17.60;;;13.00;;
2111;SDS011;1062;52.538;13.400;2022-11-15T11:54:50;18.37;;;12.00;;
2111;SDS011;1062;52.538;13.400;2022-11-15T11:57:30;19.77;;;12.10;;
2111;SDS011;1062;52.538;13.400;2022-11-15T12:00:20;20.23;;;12.40;;
2111;SDS011;1062;52.538;13.400;2022-11-15T12:05:50;13.27;;;10.63;;
2111;SDS011;1062;52.538;13.400;2022-11-15T12:08:33;18.50;;;12.30;;
2111;SDS011;1062;52.538;13.400;2022-11-15T12:11:09;19.10;;;12.87;;
2111;SDS011;1062;52.538;13.400;2022-11-15T12:13:42;20.17;;;12.40;;
2111;SDS011;1062;52.538;13.400;2022-11-15T12:16:14;17.53;;;12.40;;
2111;SDS011;1062;52.538;13.400;2022-11-15T12:18:59;21.30;;;12.60;;
2111;SDS011;1062;52.538;13.400;2022-11-15T12:24:12;15.87;;;11.30;;
2111;SDS011;1062;52.538;13.400;2022-11-15T12:27:45;19.13;;;12.50;;
2111;SDS011;1062;52.538;13.400;2022-11-15T12:29:48;14.87;;;11.27;;
2111;SDS011;1062;52.538;13.400;2022-11-15T12:32:25;14.73;;;10.37;;
2111;SDS011;1062;52.538;13.400;2022-11-15T12:34:51;17.40;;;12.23;;
2111;SDS011;1062;52.538;13.400;2022-11-15T12:37:34;20.70;;;12.37;;
2111;SDS011;1062;52.538;13.400;2022-11-15T12:40:36;15.50;;;11.63;;
2111;SDS011;1062;52.538;13.400;2022-11-15T12:45:39;18.50;;;11.40;;
2111;SDS011;1062;52.538;13.400;2022-11-15T12:53:36;15.60;;;11.50;;
2111;SDS011;1062;52.538;13.400;2022-11-15T13:01:08;15.20;;;11.57;;
2111;SDS011;1062;52.538;13.400;2022-11-15T13:03:34;15.90;;;12.07;;
2111;SDS011;1062;52.538;13.400;2022-11-15T13:06:01;17.30;;;12.90;;
2111;SDS011;1062;52.538;13.400;2022-11-15T13:08:35;16.57;;;11.67;;
2111;SDS011;1062;52.538;13.400;2022-11-15T13:14:37;14.60;;;11.50;;
2111;SDS011;1062;52.538;13.400;2022-11-15T13:17:23;13.03;;;9.63;;
2111;SDS011;1062;52.538;13.400;2022-11-15T13:22:41;14.60;;;10.03;;
2111;SDS011;1062;52.538;13.400;2022-11-15T13:25:19;15.53;;;10.40;;
2111;SDS011;1062;52.538;13.400;2022-11-15T13:35:54;15.33;;;11.97;;
2111;SDS011;1062;52.538;13.400;2022-11-15T13:38:30;16.37;;;11.17;;
2111;SDS011;1062;52.538;13.400;2022-11-15T13:40:58;14.57;;;11.63;;
2111;SDS011;1062;52.538;13.400;2022-11-15T13:43:28;14.40;;;9.57;;
2111;SDS011;1062;52.538;13.400;2022-11-15T13:46:12;14.83;;;10.33;;
2111;SDS011;1062;52.538;13.400;2022-11-15T13:48:43;15.13;;;11.07;;
2111;SDS011;1062;52.538;13.400;2022-11-15T13:51:25;18.10;;;10.80;;
2111;SDS011;1062;52.538;13.400;2022-11-15T13:53:56;12.33;;;9.80;;
2111;SDS011;1062;52.538;13.400;2022-11-15T13:56:38;13.10;;;9.50;;
2111;SDS011;1062;52.538;13.400;2022-11-15T13:59:10;12.83;;;10.13;;
2111;SDS011;1062;52.538;13.400;2022-11-15T14:01:49;16.00;;;10.67;;
2111;SDS011;1062;52.538;13.400;2022-11-15T14:04:18;15.00;;;10.37;;
2111;SDS011;1062;52.538;13.400;2022-11-15T14:06:47;11.20;;;9.00;;
2111;SDS011;1062;52.538;13.400;2022-11-15T14:09:24;12.43;;;9.37;;
2111;SDS011;1062;52.538;13.400;2022-11-15T14:11:55;14.13;;;8.93;;
2111;SDS011;1062;52.538;13.400;2022-11-15T14:14:22;16.03;;;9.30;;
2111;SDS011;1062;52.538;13.400;2022-11-15T14:16:57;14.17;;;10.13;;
2111;SDS011;1062;52.538;13.400;2022-11-15T14:22:09;13.13;;;8.90;;
2111;SDS011;1062;52.538;13.400;2022-11-15T14:24:38;12.93;;;10.40;;
2111;SDS011;1062;52.538;13.400;2022-11-15T14:29:53;12.63;;;10.07;;
2111;SDS011;1062;52.538;13.400;2022-11-15T14:32:23;14.10;;;10.37;;
2111;SDS011;1062;52.538;13.400;2022-11-15T14:34:57;11.70;;;9.57;;
2111;SDS011;1062;52.538;13.400;2022-11-15T14:37:25;13.40;;;10.50;;
2111;SDS011;1062;52.538;13.400;2022-11-15T14:39:53;13.57;;;10.30;;
2111;SDS011;1062;52.538;13.400;2022-11-15T14:42:19;13.97;;;12.10;;
2111;SDS011;1062;52.538;13.400;2022-11-15T14:44:46;16.07;;;10.23;;
2111;SDS011;1062;52.538;13.400;2022-11-15T14:47:12;18.33;;;14.07;;
2111;SDS011;1062;52.538;13.400;2022-11-15T14:49:38;15.80;;;11.00;;
2111;SDS011;1062;52.538;13.400;2022-11-15T14:52:15;15.97;;;11.33;;
2111;SDS011;1062;52.538;13.400;2022-11-15T14:54:50;14.13;;;9.90;;
2111;SDS011;1062;52.538;13.400;2022-11-15T14:57:16;14.23;;;10.10;;
2111;SDS011;1062;52.538;13.400;2022-11-15T14:59:42;16.87;;;10.20;;
2111;SDS011;1062;52.538;13.400;2022-11-15T15:02:26;12.50;;;10.23;;
2111;SDS011;1062;52.538;13.400;2022-11-15T15:04:52;13.07;;;11.00;;
2111;SDS011;1062;52.538;13.400;2022-11-15T15:07:18;14.70;;;10.43;;
2111;SDS011;1062;52.538;13.400;2022-11-15T15:09:44;14.60;;;12.60;;
2111;SDS011;1062;52.538;13.400;2022-11-15T15:12:28;15.17;;;10.90;;
2111;SDS011;1062;52.538;13.400;2022-11-15T15:14:55;19.77;;;12.23;;
2111;SDS011;1062;52.538;13.400;2022-11-15T15:17:20;18.47;;;12.80;;
2111;SDS011;1062;52.538;13.400;2022-11-15T15:19:46;15.20;;;11.53;;
2111;SDS011;1062;52.538;13.400;2022-11-15T15:22:19;15.83;;;11.77;;
2111;SDS011;1062;52.538;13.400;2022-11-15T15:24:50;14.70;;;11.73;;
2111;SDS011;1062;52.538;13.400;2022-11-15T15:27:16;18.30;;;13.17;;
2111;SDS011;1062;52.538;13.400;2022-11-15T15:29:41;16.80;;;10.77;;
2111;SDS011;1062;52.538;13.400;2022-11-15T15:32:07;18.90;;;12.63;;
2111;SDS011;1062;52.538;13.400;2022-11-15T15:34:34;15.90;;;12.70;;
2111;SDS011;1062;52.538;13.400;2022-11-15T15:37:32;22.97;;;13.27;;
2111;SDS011;1062;52.538;13.400;2022-11-15T15:39:52;17.93;;;13.60;;
2111;SDS011;1062;52.538;13.400;2022-11-15T15:42:19;19.93;;;14.40;;
2111;SDS011;1062;52.538;13.400;2022-11-15T15:44:45;15.33;;;11.57;;
2111;SDS011;1062;52.538;13.400;2022-11-15T15:47:21;16.73;;;12.23;;
2111;SDS011;1062;52.538;13.400;2022-11-15T15:49:48;22.07;;;14.00;;
2111;SDS011;1062;52.538;13.400;2022-11-15T15:52:15;18.37;;;13.17;;
2111;SDS011;1062;52.538;13.400;2022-11-15T15:54:41;18.60;;;13.57;;
2111;SDS011;1062;52.538;13.400;2022-11-15T15:57:08;19.83;;;12.90;;
2111;SDS011;1062;52.538;13.400;2022-11-15T15:59:37;21.10;;;13.07;;
2111;SDS011;1062;52.538;13.400;2022-11-15T16:02:02;19.97;;;12.43;;
2111;SDS011;1062;52.538;13.400;2022-11-15T16:04:28;22.23;;;13.17;;
2111;SDS011;1062;52.538;13.400;2022-11-15T16:07:00;17.83;;;13.07;;
2111;SDS011;1062;52.538;13.400;2022-11-15T16:09:27;16.77;;;12.50;;
2111;SDS011;1062;52.538;13.400;2022-11-15T16:12:11;20.37;;;14.03;;
2111;SDS011;1062;52.538;13.400;2022-11-15T16:14:36;20.97;;;14.20;;
2111;SDS011;1062;52.538;13.400;2022-11-15T16:17:02;21.50;;;13.80;;
2111;SDS011;1062;52.538;13.400;2022-11-15T16:19:28;16.37;;;13.57;;
2111;SDS011;1062;52.538;13.400;2022-11-15T16:21:54;21.07;;;14.33;;
2111;SDS011;1062;52.538;13.400;2022-11-15T16:24:20;17.80;;;12.63;;
2111;SDS011;1062;52.538;13.400;2022-11-15T16:26:46;18.17;;;12.97;;
2111;SDS011;1062;52.538;13.400;2022-11-15T16:29:13;20.47;;;13.50;;
2111;SDS011;1062;52.538;13.400;2022-11-15T16:31:38;19.40;;;13.30;;
2111;SDS011;1062;52.538;13.400;2022-11-15T16:34:04;19.60;;;13.50;;
2111;SDS011;1062;52.538;13.400;2022-11-15T16:36:32;20.20;;;13.27;;
2111;SDS011;1062;52.538;13.400;2022-11-15T16:38:59;23.30;;;15.23;;
2111;SDS011;1062;52.538;13.400;2022-11-15T16:41:28;19.90;;;13.90;;
2111;SDS011;1062;52.538;13.400;2022-11-15T16:43:54;19.97;;;14.73;;
2111;SDS011;1062;52.538;13.400;2022-11-15T16:46:21;20.90;;;14.93;;
2111;SDS011;1062;52.538;13.400;2022-11-15T16:48:48;22.40;;;15.27;;
2111;SDS011;1062;52.538;13.400;2022-11-15T16:51:14;22.67;;;15.33;;
2111;SDS011;1062;52.538;13.400;2022-11-15T16:53:40;22.77;;;16.73;;
2111;SDS011;1062;52.538;13.400;2022-11-15T16:56:28;23.50;;;15.70;;